createdAt,value
2023-03-24T00:01:20.822Z,13.70
2023-03-24T00:06:26.601Z,16.80
2023-03-24T00:09:00.454Z,15.90
2023-03-24T00:11:34.998Z,18.70
2023-03-24T00:14:07.223Z,15.40
2023-03-24T00:16:42.492Z,19.40
2023-03-24T00:19:15.209Z,15.90
2023-03-24T00:21:47.172Z,14.60
2023-03-24T00:24:20.115Z,14.90
2023-03-24T00:26:52.582Z,15.80
2023-03-24T00:29:25.599Z,16.70
2023-03-24T00:31:57.492Z,16.50
2023-03-24T00:34:29.496Z,16.70
2023-03-24T00:37:01.437Z,15.30
2023-03-24T00:39:33.683Z,15.90
2023-03-24T00:42:05.625Z,14.10
2023-03-24T00:44:38.878Z,15.10
2023-03-24T00:47:11.165Z,20.50
2023-03-24T00:49:43.051Z,20.50
2023-03-24T00:52:20.557Z,20.70
2023-03-24T00:54:58.000Z,16.60
2023-03-24T00:57:34.716Z,16.30
2023-03-24T01:00:14.293Z,14.20
2023-03-24T01:02:47.509Z,16.70
2023-03-24T01:05:20.998Z,16.90
2023-03-24T01:07:56.865Z,16.80
2023-03-24T01:10:29.212Z,15.50
2023-03-24T01:13:02.826Z,20.60
2023-03-24T01:15:36.561Z,15.00
2023-03-24T01:18:09.731Z,17.60
2023-03-24T01:20:45.653Z,15.50
2023-03-24T01:23:21.425Z,14.50
2023-03-24T01:25:54.892Z,16.30
2023-03-24T01:28:27.485Z,13.30
2023-03-24T01:33:29.941Z,13.90
2023-03-24T01:36:02.552Z,14.30
2023-03-24T01:38:35.035Z,15.40
2023-03-24T01:41:08.426Z,13.40
2023-03-24T01:43:40.447Z,13.90
2023-03-24T01:46:19.175Z,12.50
2023-03-24T01:48:55.592Z,13.70
2023-03-24T01:51:31.535Z,14.60
2023-03-24T01:54:06.990Z,12.30
2023-03-24T01:56:42.369Z,15.40
2023-03-24T01:59:18.492Z,12.30
2023-03-24T02:02:13.799Z,11.60
2023-03-24T02:04:54.049Z,12.00
2023-03-24T02:07:34.260Z,12.00
2023-03-24T02:10:10.269Z,9.70
2023-03-24T02:12:42.889Z,13.40
2023-03-24T02:18:08.013Z,12.70
2023-03-24T02:24:07.964Z,11.90
2023-03-24T02:27:00.291Z,10.60
2023-03-24T02:30:10.967Z,12.00
2023-03-24T02:33:15.466Z,11.30
2023-03-24T02:36:17.210Z,12.20
2023-03-24T02:39:30.973Z,12.10
2023-03-24T02:42:19.161Z,14.50
2023-03-24T02:44:57.850Z,15.70
2023-03-24T02:47:43.486Z,15.00
2023-03-24T02:50:24.656Z,15.40
2023-03-24T02:53:09.109Z,23.10
2023-03-24T02:55:48.762Z,17.70
2023-03-24T02:58:29.610Z,22.30
2023-03-24T03:01:08.150Z,19.60
2023-03-24T03:04:10.195Z,18.00
2023-03-24T03:06:47.824Z,17.00
2023-03-24T03:09:23.124Z,21.20
2023-03-24T03:11:58.764Z,17.60
2023-03-24T03:14:37.767Z,18.10
2023-03-24T03:17:14.523Z,22.50
2023-03-24T03:19:52.591Z,19.10
2023-03-24T03:22:28.433Z,21.70
2023-03-24T03:25:05.391Z,22.00
2023-03-24T03:27:39.854Z,18.50
2023-03-24T03:30:18.423Z,15.10
2023-03-24T03:32:55.353Z,17.10
2023-03-24T03:35:33.476Z,14.10
2023-03-24T03:38:14.769Z,14.70
2023-03-24T03:40:54.307Z,13.00
2023-03-24T03:43:29.133Z,15.40
2023-03-24T03:46:02.206Z,12.30
2023-03-24T03:48:39.465Z,14.30
2023-03-24T03:51:14.288Z,14.30
2023-03-24T03:53:55.560Z,13.70
2023-03-24T03:56:33.349Z,13.20
2023-03-24T03:59:28.900Z,15.70
2023-03-24T04:02:03.441Z,15.30
2023-03-24T04:05:05.698Z,19.00
2023-03-24T04:08:16.953Z,11.80
2023-03-24T04:11:33.363Z,22.90
2023-03-24T04:14:40.136Z,15.10
2023-03-24T04:17:57.575Z,16.70
2023-03-24T04:20:49.849Z,16.40
2023-03-24T04:23:32.409Z,15.30
2023-03-24T04:26:15.677Z,13.60
2023-03-24T04:28:58.172Z,11.50
2023-03-24T04:31:35.135Z,15.20
2023-03-24T04:34:17.070Z,12.00
2023-03-24T04:36:54.356Z,15.20
2023-03-24T04:39:31.953Z,14.20
2023-03-24T04:42:11.062Z,12.50
2023-03-24T04:44:43.432Z,13.90
2023-03-24T04:47:49.787Z,14.80
2023-03-24T04:50:37.951Z,12.30
2023-03-24T04:53:12.941Z,11.90
2023-03-24T04:56:06.556Z,15.40
2023-03-24T04:59:01.194Z,12.60
2023-03-24T05:01:37.343Z,11.20
2023-03-24T05:04:29.665Z,12.80
2023-03-24T05:07:05.205Z,9.10
2023-03-24T05:12:08.130Z,10.70
2023-03-24T05:14:59.922Z,10.00
2023-03-24T05:17:31.855Z,17.00
2023-03-24T05:20:06.861Z,15.30
2023-03-24T05:22:38.905Z,13.20
2023-03-24T05:25:12.000Z,11.70
2023-03-24T05:27:44.290Z,13.80
2023-03-24T05:30:26.071Z,19.00
2023-03-24T05:33:04.112Z,13.10
2023-03-24T05:35:36.277Z,13.60
2023-03-24T05:38:08.237Z,13.10
2023-03-24T05:40:41.259Z,11.10
2023-03-24T05:43:17.478Z,23.90
2023-03-24T05:45:57.464Z,18.20
2023-03-24T05:48:34.443Z,13.40
2023-03-24T05:51:17.114Z,13.80
2023-03-24T05:53:49.280Z,15.40
2023-03-24T05:56:23.768Z,14.30
2023-03-24T05:59:06.586Z,13.90
2023-03-24T06:02:11.095Z,16.70
2023-03-24T06:04:55.771Z,14.30
2023-03-24T06:07:30.769Z,18.20
2023-03-24T06:10:04.571Z,14.50
2023-03-24T06:12:44.045Z,11.80
2023-03-24T06:15:17.580Z,15.10
2023-03-24T06:17:54.813Z,16.00
2023-03-24T06:20:34.349Z,14.10
2023-03-24T06:23:16.708Z,14.80
2023-03-24T06:26:01.430Z,19.40
2023-03-24T06:28:34.934Z,18.40
2023-03-24T06:31:15.113Z,20.00
2023-03-24T06:33:48.148Z,15.50
2023-03-24T06:36:23.500Z,16.80
2023-03-24T06:38:56.351Z,17.00
2023-03-24T06:41:29.134Z,13.20
2023-03-24T06:44:04.052Z,14.50
2023-03-24T06:46:36.933Z,14.90
2023-03-24T06:49:09.302Z,12.50
2023-03-24T06:51:41.453Z,13.10
2023-03-24T06:54:13.633Z,17.80
2023-03-24T06:56:45.799Z,7.60
2023-03-24T06:59:18.212Z,11.80
2023-03-24T07:01:50.884Z,11.70
2023-03-24T07:04:36.499Z,15.20
2023-03-24T07:10:19.441Z,11.80
2023-03-24T07:12:51.559Z,13.20
2023-03-24T07:17:56.056Z,11.20
2023-03-24T07:20:48.576Z,11.60
2023-03-24T07:23:22.523Z,10.80
2023-03-24T07:25:55.079Z,12.40
2023-03-24T07:28:45.639Z,11.50
2023-03-24T07:33:49.731Z,13.20
2023-03-24T07:36:22.810Z,16.30
2023-03-24T07:38:54.885Z,14.60
2023-03-24T07:41:30.382Z,14.50
2023-03-24T07:44:05.185Z,14.00
2023-03-24T07:46:39.917Z,9.60
2023-03-24T07:49:18.984Z,11.00
2023-03-24T07:51:55.875Z,11.10
2023-03-24T07:54:34.270Z,12.00
2023-03-24T07:57:08.606Z,9.70
2023-03-24T07:59:42.911Z,11.40
2023-03-24T08:02:24.144Z,10.10
2023-03-24T08:05:19.431Z,12.40
2023-03-24T08:08:14.642Z,12.60
2023-03-24T08:10:47.513Z,10.00
2023-03-24T08:13:19.936Z,10.80
2023-03-24T08:15:53.266Z,8.10
2023-03-24T08:18:26.491Z,9.70
2023-03-24T08:21:01.616Z,10.20
2023-03-24T08:23:33.849Z,11.50
2023-03-24T08:26:07.300Z,11.80
2023-03-24T08:28:39.566Z,10.40
2023-03-24T08:31:13.247Z,11.20
2023-03-24T08:33:45.459Z,11.70
2023-03-24T08:36:17.640Z,9.20
2023-03-24T08:38:51.857Z,10.60
2023-03-24T08:41:34.717Z,9.20
2023-03-24T08:44:11.887Z,9.40
2023-03-24T08:46:44.023Z,10.40
2023-03-24T08:49:16.076Z,9.20
2023-03-24T08:51:48.412Z,8.80
2023-03-24T08:54:23.713Z,7.20
2023-03-24T08:56:55.873Z,8.30
2023-03-24T08:59:28.119Z,6.90
2023-03-24T09:02:00.351Z,8.50
2023-03-24T09:04:32.462Z,8.50
2023-03-24T09:07:04.658Z,10.10
2023-03-24T09:09:36.982Z,7.10
2023-03-24T09:12:09.762Z,8.70
2023-03-24T09:14:42.072Z,6.30
2023-03-24T09:17:14.638Z,8.40
2023-03-24T09:19:47.409Z,6.40
2023-03-24T09:24:50.512Z,7.30
2023-03-24T09:27:23.493Z,6.90
2023-03-24T09:29:55.577Z,9.10
2023-03-24T09:32:28.055Z,10.90
2023-03-24T09:35:00.651Z,7.40
2023-03-24T09:37:33.490Z,6.50
2023-03-24T09:40:08.904Z,6.70
2023-03-24T09:42:43.556Z,7.50
2023-03-24T09:45:21.814Z,8.30
2023-03-24T09:47:59.037Z,5.00
2023-03-24T09:50:34.951Z,6.60
2023-03-24T09:53:16.632Z,6.70
2023-03-24T09:55:49.947Z,6.10
2023-03-24T09:58:25.017Z,8.60
2023-03-24T10:00:57.738Z,9.00
2023-03-24T10:03:30.179Z,10.20
2023-03-24T10:06:08.044Z,6.80
2023-03-24T10:08:44.849Z,9.00
2023-03-24T10:11:24.818Z,6.80
2023-03-24T10:14:11.899Z,8.30
2023-03-24T10:16:52.073Z,8.50
2023-03-24T10:19:36.471Z,7.80
2023-03-24T10:22:17.428Z,9.00
2023-03-24T10:24:57.466Z,10.00
2023-03-24T10:27:34.697Z,10.70
2023-03-24T10:30:16.884Z,11.40
2023-03-24T10:32:49.224Z,10.90
2023-03-24T10:35:25.617Z,9.20
2023-03-24T10:38:00.382Z,9.90
2023-03-24T10:40:33.939Z,10.90
2023-03-24T10:43:09.655Z,8.40
2023-03-24T10:45:48.513Z,8.50
2023-03-24T10:48:44.854Z,9.30
2023-03-24T10:51:22.600Z,9.40
2023-03-24T10:54:13.364Z,10.90
2023-03-24T10:56:47.946Z,9.10
2023-03-24T10:59:27.501Z,18.10
2023-03-24T11:02:02.152Z,7.20
2023-03-24T11:04:34.604Z,11.60
2023-03-24T11:07:14.865Z,11.40
2023-03-24T11:09:48.611Z,8.50
2023-03-24T11:12:26.269Z,9.90
2023-03-24T11:15:21.191Z,9.50
2023-03-24T11:17:59.253Z,7.10
2023-03-24T11:20:35.011Z,10.90
2023-03-24T11:23:12.357Z,9.80
2023-03-24T11:25:47.510Z,9.20
2023-03-24T11:28:22.469Z,6.90
2023-03-24T11:30:56.171Z,7.20
2023-03-24T11:33:35.635Z,9.00
2023-03-24T11:36:45.302Z,8.50
2023-03-24T11:39:22.104Z,8.70
2023-03-24T11:42:15.562Z,11.70
2023-03-24T11:44:50.737Z,9.90
2023-03-24T11:47:30.348Z,8.90
2023-03-24T11:50:18.949Z,8.50
2023-03-24T11:52:55.214Z,9.00
2023-03-24T11:55:36.944Z,9.00
2023-03-24T11:58:17.704Z,8.70
2023-03-24T12:00:54.376Z,9.70
2023-03-24T12:03:49.853Z,9.50
2023-03-24T12:06:36.172Z,10.60
2023-03-24T12:09:17.500Z,14.90
2023-03-24T12:12:08.334Z,8.50
2023-03-24T12:14:51.094Z,11.40
2023-03-24T12:17:28.067Z,8.90
2023-03-24T12:20:15.873Z,9.80
2023-03-24T12:22:57.391Z,8.70
2023-03-24T12:25:58.095Z,11.50
2023-03-24T12:28:48.579Z,8.10
2023-03-24T12:31:41.869Z,12.60
2023-03-24T12:34:33.697Z,8.70
2023-03-24T12:37:11.147Z,8.80
2023-03-24T12:39:50.530Z,10.10
2023-03-24T12:42:24.729Z,8.70
2023-03-24T12:45:26.765Z,5.90
2023-03-24T12:48:13.509Z,6.90
2023-03-24T12:50:59.929Z,7.20
2023-03-24T12:53:43.809Z,7.00
2023-03-24T12:56:20.107Z,6.90
2023-03-24T12:58:57.535Z,5.90
2023-03-24T13:01:35.574Z,6.80
2023-03-24T13:04:12.983Z,4.90
2023-03-24T13:06:49.953Z,5.00
2023-03-24T13:09:35.833Z,7.70
2023-03-24T13:12:21.850Z,6.90
2023-03-24T13:15:01.198Z,6.70
2023-03-24T13:17:39.617Z,3.70
2023-03-24T13:20:22.003Z,3.30
2023-03-24T13:22:55.769Z,3.00
2023-03-24T13:25:38.269Z,3.10
2023-03-24T13:28:18.701Z,5.60
2023-03-24T13:30:52.038Z,3.80
2023-03-24T13:33:27.150Z,3.40
2023-03-24T13:36:27.530Z,3.00
2023-03-24T13:39:04.027Z,3.40
2023-03-24T13:41:39.696Z,5.20
2023-03-24T13:44:21.496Z,4.60
2023-03-24T13:47:15.158Z,2.80
2023-03-24T13:49:56.806Z,2.70
2023-03-24T13:52:36.402Z,2.90
2023-03-24T13:55:15.454Z,2.40
2023-03-24T13:58:01.575Z,2.90
2023-03-24T14:00:34.858Z,2.70
2023-03-24T14:03:32.256Z,3.90
2023-03-24T14:06:07.605Z,2.90
2023-03-24T14:08:56.115Z,2.80
2023-03-24T14:11:49.941Z,3.00
2023-03-24T14:14:25.464Z,2.60
2023-03-24T14:17:15.780Z,5.10
2023-03-24T14:20:15.181Z,4.50
2023-03-24T14:22:49.811Z,3.80
2023-03-24T14:25:27.645Z,4.20
2023-03-24T14:28:16.362Z,2.40
2023-03-24T14:31:03.194Z,2.70
2023-03-24T14:33:35.886Z,4.30
2023-03-24T14:36:12.177Z,2.00
2023-03-24T14:38:45.900Z,4.90
2023-03-24T14:41:28.675Z,5.80
2023-03-24T14:44:02.072Z,2.80
2023-03-24T14:46:40.160Z,3.30
2023-03-24T14:49:24.453Z,5.50
2023-03-24T14:52:02.983Z,3.80
2023-03-24T14:54:39.625Z,5.40
2023-03-24T14:57:17.609Z,5.70
2023-03-24T14:59:56.604Z,5.20
2023-03-24T15:02:33.933Z,4.70
2023-03-24T15:05:26.117Z,15.40
2023-03-24T15:08:13.702Z,8.00
2023-03-24T15:10:50.236Z,3.40
2023-03-24T15:13:38.633Z,4.30
2023-03-24T15:16:21.750Z,2.50
2023-03-24T15:21:33.994Z,5.90
2023-03-24T15:24:25.227Z,5.10
2023-03-24T15:27:15.149Z,4.90
2023-03-24T15:29:47.610Z,4.50
2023-03-24T15:32:22.187Z,5.40
2023-03-24T15:34:59.195Z,5.70
2023-03-24T15:37:39.234Z,2.80
2023-03-24T15:40:40.783Z,4.10
2023-03-24T15:43:20.828Z,3.80
2023-03-24T15:46:08.596Z,3.80
2023-03-24T15:48:42.010Z,4.50
2023-03-24T15:51:15.189Z,3.50
2023-03-24T15:53:51.009Z,3.00
2023-03-24T15:56:29.129Z,4.90
2023-03-24T15:59:15.468Z,3.00
2023-03-24T16:01:51.130Z,5.40
2023-03-24T16:04:23.495Z,3.70
2023-03-24T16:06:57.835Z,4.30
2023-03-24T16:09:58.307Z,3.40
2023-03-24T16:12:31.071Z,5.50
2023-03-24T16:15:16.242Z,4.70
2023-03-24T16:17:49.844Z,2.70
2023-03-24T16:20:23.399Z,3.80
2023-03-24T16:22:57.056Z,2.30
2023-03-24T16:25:30.874Z,3.30
2023-03-24T16:28:03.312Z,5.60
2023-03-24T16:30:41.119Z,2.70
2023-03-24T16:33:15.044Z,3.60
2023-03-24T16:35:47.423Z,3.70
2023-03-24T16:38:19.596Z,5.20
2023-03-24T16:40:54.443Z,3.30
2023-03-24T16:43:33.210Z,3.80
2023-03-24T16:46:06.165Z,5.80
2023-03-24T16:48:38.122Z,4.00
2023-03-24T16:51:15.836Z,10.10
2023-03-24T16:53:49.222Z,7.50
2023-03-24T16:56:22.706Z,6.00
2023-03-24T16:58:56.304Z,7.60
2023-03-24T17:01:33.998Z,4.80
2023-03-24T17:04:09.538Z,6.60
2023-03-24T17:06:43.523Z,7.10
2023-03-24T17:09:17.549Z,7.50
2023-03-24T17:11:54.577Z,7.30
2023-03-24T17:14:27.714Z,9.90
2023-03-24T17:17:05.376Z,9.50
2023-03-24T17:19:47.828Z,9.90
2023-03-24T17:22:21.992Z,9.60
2023-03-24T17:25:02.640Z,13.00
2023-03-24T17:27:47.138Z,9.00
2023-03-24T17:30:24.826Z,10.80
2023-03-24T17:32:58.332Z,11.00
2023-03-24T17:35:33.251Z,7.20
2023-03-24T17:38:06.839Z,9.50
2023-03-24T17:40:38.814Z,7.80
2023-03-24T17:43:10.652Z,8.30
2023-03-24T17:45:43.545Z,10.60
2023-03-24T17:48:15.680Z,9.20
2023-03-24T17:50:48.097Z,7.30
2023-03-24T17:56:05.583Z,8.90
2023-03-24T17:58:38.825Z,8.00
2023-03-24T18:01:14.840Z,6.00
2023-03-24T18:03:49.946Z,7.90
2023-03-24T18:06:22.490Z,8.80
2023-03-24T18:08:54.681Z,11.00
2023-03-24T18:11:26.819Z,12.00
2023-03-24T18:14:00.184Z,14.20
2023-03-24T18:16:35.488Z,13.40
2023-03-24T18:19:08.371Z,10.30
2023-03-24T18:21:41.138Z,9.80
2023-03-24T18:24:14.626Z,13.60
2023-03-24T18:26:48.143Z,13.70
2023-03-24T18:29:23.921Z,18.80
2023-03-24T18:31:55.835Z,17.60
2023-03-24T18:34:28.133Z,12.40
2023-03-24T18:37:01.371Z,15.60
2023-03-24T18:39:34.303Z,18.30
2023-03-24T18:42:06.876Z,15.00
2023-03-24T18:44:39.132Z,14.20
2023-03-24T18:47:11.916Z,15.00
2023-03-24T18:52:17.944Z,14.10
2023-03-24T18:54:50.476Z,14.70
2023-03-24T18:57:22.485Z,15.80
2023-03-24T18:59:54.506Z,14.50
2023-03-24T19:02:26.645Z,18.20
2023-03-24T19:07:31.462Z,15.70
2023-03-24T19:10:04.685Z,13.80
2023-03-24T19:12:37.050Z,12.50
2023-03-24T19:15:10.172Z,15.70
2023-03-24T19:17:42.137Z,14.90
2023-03-24T19:20:15.309Z,14.70
2023-03-24T19:22:47.320Z,15.70
2023-03-24T19:25:19.475Z,11.00
2023-03-24T19:27:51.647Z,13.80
2023-03-24T19:30:23.933Z,14.10
2023-03-24T19:32:56.777Z,14.30
2023-03-24T19:35:28.946Z,14.10
2023-03-24T19:38:03.108Z,15.10
2023-03-24T19:40:41.442Z,14.60
2023-03-24T19:43:13.525Z,13.30
2023-03-24T19:45:49.683Z,15.20
2023-03-24T19:48:22.727Z,15.00
2023-03-24T19:50:57.382Z,16.30
2023-03-24T19:53:29.641Z,20.30
2023-03-24T19:56:03.242Z,14.70
2023-03-24T19:58:35.597Z,17.40
2023-03-24T20:01:07.890Z,15.90
2023-03-24T20:03:42.834Z,14.70
2023-03-24T20:06:15.862Z,16.80
2023-03-24T20:08:48.704Z,16.80
2023-03-24T20:11:23.279Z,17.90
2023-03-24T20:13:55.284Z,16.40
2023-03-24T20:16:27.407Z,17.90
2023-03-24T20:18:59.826Z,15.60
2023-03-24T20:21:33.463Z,16.10
2023-03-24T20:24:05.713Z,19.20
2023-03-24T20:26:37.762Z,19.30
2023-03-24T20:29:10.145Z,22.10
2023-03-24T20:31:43.076Z,17.90
2023-03-24T20:34:16.417Z,20.40
2023-03-24T20:36:49.451Z,20.40
2023-03-24T20:39:21.396Z,18.30
2023-03-24T20:41:53.274Z,21.80
2023-03-24T20:44:25.534Z,18.00
2023-03-24T20:47:00.777Z,18.70
2023-03-24T20:49:32.896Z,14.90
2023-03-24T20:52:04.837Z,17.50
2023-03-24T20:54:36.708Z,15.20
2023-03-24T20:57:09.553Z,21.00
2023-03-24T20:59:42.197Z,17.00
2023-03-24T21:02:18.904Z,22.80
2023-03-24T21:04:50.887Z,21.70
2023-03-24T21:07:23.445Z,17.80
2023-03-24T21:09:55.346Z,17.80
2023-03-24T21:12:27.297Z,22.00
2023-03-24T21:14:59.409Z,20.80
2023-03-24T21:17:33.013Z,16.80
2023-03-24T21:20:10.653Z,20.00
2023-03-24T21:22:53.394Z,19.70
2023-03-24T21:25:27.843Z,20.30
2023-03-24T21:28:01.855Z,18.10
2023-03-24T21:30:33.903Z,17.20
2023-03-24T21:33:06.465Z,20.20
2023-03-24T21:35:38.776Z,20.40
2023-03-24T21:38:10.695Z,21.50
2023-03-24T21:40:42.845Z,23.40
2023-03-24T21:43:16.793Z,19.00
2023-03-24T21:45:53.790Z,18.00
2023-03-24T21:48:27.714Z,18.40
2023-03-24T21:51:00.263Z,20.00
2023-03-24T21:53:36.266Z,18.30
2023-03-24T21:56:09.313Z,15.90
2023-03-24T21:58:41.651Z,16.90
2023-03-24T22:01:14.652Z,17.70
2023-03-24T22:03:46.874Z,22.80
2023-03-24T22:06:21.407Z,12.50
2023-03-24T22:08:58.726Z,18.10
2023-03-24T22:11:30.751Z,18.40
2023-03-24T22:14:02.651Z,17.50
2023-03-24T22:16:34.519Z,18.60
2023-03-24T22:19:06.588Z,16.00
2023-03-24T22:21:39.681Z,18.50
2023-03-24T22:24:12.850Z,18.30
2023-03-24T22:26:47.871Z,15.10
2023-03-24T22:29:20.109Z,15.20
2023-03-24T22:31:52.062Z,16.10
2023-03-24T22:34:24.166Z,18.90
2023-03-24T22:36:56.102Z,17.60
2023-03-24T22:39:27.946Z,18.50
2023-03-24T22:42:01.036Z,21.40
2023-03-24T22:44:33.836Z,17.50
2023-03-24T22:49:36.952Z,15.80
2023-03-24T22:52:09.258Z,14.80
2023-03-24T22:54:41.524Z,16.90
2023-03-24T22:57:13.486Z,19.80
2023-03-24T22:59:45.438Z,18.00
2023-03-24T23:02:17.684Z,15.90
2023-03-24T23:04:49.634Z,19.20
2023-03-24T23:07:22.580Z,18.00
2023-03-24T23:09:59.339Z,14.50
2023-03-24T23:12:31.584Z,16.80
2023-03-24T23:15:03.761Z,18.20
2023-03-24T23:17:36.044Z,21.40
2023-03-24T23:20:11.943Z,18.60
2023-03-24T23:22:44.164Z,19.30
2023-03-24T23:25:18.869Z,18.00
2023-03-24T23:27:51.202Z,18.00
2023-03-24T23:30:23.104Z,18.00
2023-03-24T23:32:57.966Z,17.10
2023-03-24T23:35:30.092Z,16.60
2023-03-24T23:38:02.611Z,19.90
2023-03-24T23:40:34.628Z,17.70
2023-03-24T23:43:06.872Z,18.60
2023-03-24T23:45:39.000Z,20.70
2023-03-24T23:48:11.955Z,18.60
2023-03-24T23:50:49.163Z,22.10
2023-03-24T23:53:20.976Z,18.50
2023-03-24T23:55:57.301Z,22.70
2023-03-24T23:58:31.273Z,22.90
